Meteo Giornale » Osservazioni meteo Francia » Saint-Yan

ore: 00:00 - Osservazioni Meteo Saint-Yan
Lat. 46° 25' N Lon. 4° 1' E Alt. 242 metri s.l.m.

sereno Europe/Paris

24 °C

Sereno

Temp. 24 Ore

15 °C

34 °C

Est/Nord-Est

9.3 Km/h

Dew point 19 °C

Umidità 73 %

Visibilità  10 Km

Il sole sorge alle ore 05:51

Il sole tramonta alle ore 21:42

Data e Ora Cielo e Fenomeni T °C DP °C Um. % Pres. hPa Vis. km Vento km/h
Oggi h: 00:00 sereno Sereno 24 19 73 1020 10 E/NE 9.3
Ieri h: 23:30 sereno Sereno 24 19 73 1020 10 N 3.7
Ieri h: 23:00 sereno Sereno 25 19 69 1020 10 N 5.5
Ieri h: 22:30 sereno Sereno 26 19 65 1019 10 N 5.5
Ieri h: 22:00 sereno Sereno 27 20 65 1019 10 E 9.3
Ieri h: 21:30 sereno Sereno 28 20 61 1019 10 E/NE 11.1
Ieri h: 21:00 sereno Sereno 30 20 55 1019 10 E/NE 9.3
Ieri h: 20:30 sereno Sereno 31 20 52 1019 10 NE 9.3
Ieri h: 20:00 sereno Sereno 32 18 43 1018 10 NE 11.1
Ieri h: 19:30 sereno Sereno 33 17 38 1018 10 E/NE 11.1
Ieri h: 19:00 sereno Sereno 34 16 34 1018 10 E/NE 9.3
Ieri h: 18:30 sereno Sereno 34 15 32 1018 10 N 5.5
Ieri h: 18:00 sereno Sereno 34 15 32 1018 10 N 5.5
Ieri h: 17:30 sereno Sereno 34 15 32 1018 10 N 5.5
Ieri h: 17:00 sereno Sereno 34 14 30 1018 10 N 3.7
Ieri h: 16:30 sereno Sereno 34 14 30 1018 10 N 5.5
Ieri h: 16:00 sereno Sereno 34 14 30 1018 10 S/SE 9.3
Ieri h: 15:30 sereno Sereno 34 12 26 1018 10 N 7.4
Ieri h: 15:00 sereno Sereno 33 13 29 1018 10 S/SE 7.4
Ieri h: 14:30 sereno Sereno 33 13 29 1018 10 S/SE 9.3
Ieri h: 14:00 sereno Sereno 33 13 29 1018 10 S 9.3
Ieri h: 13:30 sereno Sereno 32 12 29 1018 10 S/SE 11.1
Ieri h: 13:00 sereno Sereno 32 14 33 1019 10 S/SE 7.4
Ieri h: 12:30 sereno Sereno 32 14 33 1018 10 S 9.3
Ieri h: 12:00 sereno Sereno 30 16 42 1018 10 N 5.5
Ieri h: 11:30 sereno Sereno 30 15 40 1018 10 N 5.5
Ieri h: 11:00 sereno Sereno 29 15 42 1018 10 N 3.7
Ieri h: 10:30 sereno Sereno 28 15 45 1018 10 N 5.5
Ieri h: 10:00 sereno Sereno 27 16 50 1018 10 N 0
Ieri h: 09:30 sereno Sereno 25 17 61 1018 10 N 0
Ieri h: 09:00 sereno Sereno 22 18 78 1018 10 N 1.8
Ieri h: 08:30 sereno Sereno 20 17 82 1018 10 N 5.5
Ieri h: 08:00 sereno Sereno 19 17 88 1018 10 N 3.7
Ieri h: 07:30 sereno Sereno 17 16 93 1017 10 N 5.5
Ieri h: 07:00 sereno Sereno 17 15 88 1017 10 N 3.7
Ieri h: 06:30 sereno Sereno 16 14 87 1017 10 N 0
Ieri h: 06:00 sereno Sereno 16 14 87 1017 10 N 5.5
Ieri h: 05:30 sereno Sereno 15 14 93 1016 10 SE 9.3
Ieri h: 05:00 sereno Sereno 15 14 93 1016 10 N 1.8
Ieri h: 04:30 sereno Sereno 16 15 93 1016 10 N 3.7
Ieri h: 04:00 sereno Sereno 16 15 93 1016 10 N 0
Ieri h: 03:30 sereno Sereno 17 15 88 1016 10 N 0
Ieri h: 03:00 sereno Sereno 17 15 88 1016 10 N 5.5
Ieri h: 02:30 sereno Sereno 18 16 88 1016 10 N 1.8
Ieri h: 02:00 sereno Sereno 18 16 88 1016 10 N 0
Ieri h: 01:30 sereno Sereno 20 16 77 1016 10 N 3.7
Ieri h: 01:00 sereno Sereno 20 17 82 1016 10 N 3.7